Vohburg — V2OW7 — position and weather

sailwx.info

Track history (hours):
 
Tides and Currents Weather Stations Pressure Air Temp Water Temp Dewpoint Dewpoint Depression Visibility Wind Speed Wind Dir Waves Ship Positions

Vohburg

Last reported at 2018-Apr-22 19:57 UTC. Time now 2018-Apr-22 20:23 UTC.
Position N 51°58' E 002°38'.

Length 140 m; draft 6.4 m.

Type: Ship (hazmat cat A). MMSI: 305773000.

Date/timePositionNaut miles runAvg speedWind from/ knotsBaromVisibWave heightAir tempDewpointWater temp
2018-Apr-22 19:57N 51°58' E 002°38'818.8
2018-Apr-22 19:31N 51°53' E 002°28'1019.3
2018-Apr-22 19:00N 51°47' E 002°16'1019.4
2018-Apr-22 18:31N 51°40' E 002°05'1019.3
2018-Apr-22 18:00N 51°34' E 001°53'918.7
2018-Apr-22 17:30N 51°30' E 001°39'816.7
2018-Apr-22 17:01N 51°27' E 001°27'815.5
2018-Apr-22 16:30N 51°29' E 001°14'815.6
2018-Apr-22 16:00N 51°29' E 001°02'816.1
2018-Apr-22 15:31N 51°28' E 000°49'610.4
2018-Apr-22 14:58N 51°26' E 000°41'0 0.0
2018-Apr-22 14:28N 51°26' E 000°41'0 0.0
2018-Apr-22 13:58N 51°26' E 000°41'0 0.0
2018-Apr-22 13:25N 51°26' E 000°41'0 0.0
2018-Apr-22 12:58N 51°26' E 000°41'0 0.0
2018-Apr-22 12:28N 51°26' E 000°41'0 0.0
2018-Apr-22 11:58N 51°26' E 000°41'0 0.0
2018-Apr-22 11:28N 51°26' E 000°41'0 0.0
2018-Apr-22 10:58N 51°26' E 000°41'0 0.0
2018-Apr-22 10:28N 51°26' E 000°41'0 0.0
2018-Apr-22 09:58N 51°26' E 000°41'0 0.0
2018-Apr-22 09:28N 51°26' E 000°41'0 0.0
2018-Apr-22 08:58N 51°26' E 000°41'0 0.0
2018-Apr-22 08:28N 51°26' E 000°41'0 0.0
2018-Apr-22 07:58N 51°26' E 000°41'0 0.0
2018-Apr-22 07:25N 51°26' E 000°41'0 0.0
2018-Apr-22 06:58N 51°26' E 000°41'0 0.0
2018-Apr-22 06:28N 51°26' E 000°41'0 0.0
2018-Apr-22 05:58N 51°26' E 000°41'0 0.0
2018-Apr-22 05:28N 51°26' E 000°41'0 0.0
2018-Apr-22 04:58N 51°26' E 000°41'0 0.0
2018-Apr-22 04:28N 51°26' E 000°41'0 0.8
2018-Apr-22 04:01N 51°26' E 000°41'510.4
2018-Apr-22 03:31N 51°28' E 000°49'816.1
2018-Apr-22 03:01N 51°29' E 001°02'917.8
2018-Apr-22 02:31N 51°29' E 001°16'918.1
2018-Apr-22 02:01N 51°27' E 001°30'510.1
2018-Apr-22 01:30N 51°30' E 001°37'816.4
2018-Apr-22 01:01N 51°37' E 001°43'816.2
2018-Apr-22 00:30N 51°45' E 001°44'816.8
2018-Apr-22 00:01N 51°53' E 001°44'816.9
2018-Apr-21 23:30N 52°02' E 001°45'917.1
2018-Apr-21 23:00N 52°10' E 001°48'1916.7
2018-Apr-21 21:51N 52°29' E 001°53'616.6
2018-Apr-21 21:30N 52°35' E 001°54'816.2
2018-Apr-21 21:00N 52°43' E 001°54'816.4
2018-Apr-21 20:30N 52°49' E 001°45'815.9
2018-Apr-21 20:00N 52°55' E 001°36'815.5
2018-Apr-21 19:30N 53°01' E 001°28'815.4
2018-Apr-21 19:00N 53°08' E 001°21'815.5
2018-Apr-21 18:30N 53°14' E 001°15'815.7
2018-Apr-21 18:00N 53°21' E 001°09'815.7
2018-Apr-21 17:30N 53°28' E 001°03'815.7
2018-Apr-21 17:00N 53°35' E 000°55'815.8
2018-Apr-21 16:30N 53°41' E 000°47'1315.6
2018-Apr-21 15:38N 53°51' E 000°32'215.6
2018-Apr-21 15:29N 53°53' E 000°29'715.7
2018-Apr-21 15:00N 53°59' E 000°21'815.6
2018-Apr-21 14:30N 54°05' E 000°13'815.5
2018-Apr-21 14:00N 54°11' E 000°04'815.6
2018-Apr-21 13:30N 54°17' W 000°04'815.8
2018-Apr-21 13:01N 54°23' W 000°13'815.9
2018-Apr-21 12:30N 54°29' W 000°22'1215.4
2018-Apr-21 11:44N 54°35' W 000°39'415.2
2018-Apr-21 11:29N 54°37' W 000°45'815.8
2018-Apr-21 11:00N 54°39' W 000°58'5 0.4
2018-Apr-20 21:28N 54°42' W 001°04'35515.4
2018-Apr-19 22:30N 57°17' E 008°26'715.0
2018-Apr-19 22:00N 57°21' E 008°38'815.1
2018-Apr-19 21:30N 57°24' E 008°51'815.0
2018-Apr-19 21:00N 57°28' E 009°04'815.3
2018-Apr-19 20:30N 57°31' E 009°16'815.4
2018-Apr-19 20:00N 57°34' E 009°29'1015.4
2018-Apr-19 19:20N 57°39' E 009°46'515.3
2018-Apr-19 19:00N 57°41' E 009°55'815.2
2018-Apr-19 18:30N 57°44' E 010°08'815.4
2018-Apr-19 18:01N 57°45' E 010°22'815.3
2018-Apr-19 17:31N 57°47' E 010°36'714.2
2018-Apr-19 17:01N 57°46' E 010°49'714.9
2018-Apr-19 16:31N 57°41' E 010°59'714.8
2018-Apr-19 16:01N 57°36' E 011°09'815.4
2018-Apr-19 15:30N 57°31' E 011°20'714.9
2018-Apr-19 15:01N 57°25' E 011°29'815.6
2018-Apr-19 14:30N 57°18' E 011°33'815.8
2018-Apr-19 14:01N 57°10' E 011°38'816.0
2018-Apr-19 13:30N 57°03' E 011°43'915.9
2018-Apr-19 12:56N 56°54' E 011°49'615.1
2018-Apr-19 12:31N 56°48' E 011°53'4415.0
2018-Apr-19 09:36N 56°10' E 012°30'115.3
2018-Apr-19 09:30N 56°08' E 012°32'815.1
2018-Apr-19 09:00N 56°03' E 012°40'815.1
2018-Apr-19 08:31N 55°55' E 012°44'714.6
2018-Apr-19 08:01N 55°49' E 012°48'714.8
2018-Apr-19 07:30N 55°42' E 012°54'611.7
2018-Apr-19 07:00N 55°36' E 012°52'511.0
2018-Apr-19 06:30N 55°32' E 012°46'713.7
2018-Apr-19 06:01N 55°26' E 012°41'714.7
2018-Apr-19 05:30N 55°18' E 012°41'815.1
2018-Apr-19 05:01N 55°16' E 012°53'815.2
2018-Apr-19 04:27N 55°15' E 013°08'3115.3
2018-Apr-19 02:26N 55°14' E 014°02'715.3
2018-Apr-19 01:59N 55°14' E 014°14'714.3
2018-Apr-19 01:30N 55°18' E 014°24'815.1
2018-Apr-19 01:00N 55°23' E 014°33'714.8
2018-Apr-19 00:31N 55°27' E 014°44'815.1
2018-Apr-19 00:01N 55°28' E 014°57'815.2
2018-Apr-18 23:31N 55°28' E 015°10'815.1
2018-Apr-18 23:00N 55°29' E 015°24'714.9
2018-Apr-18 22:30N 55°29' E 015°37'815.0
2018-Apr-18 22:00N 55°29' E 015°50'334 9.0
2018-Apr-17 09:07N 59°27' E 023°05'417.2
2018-Apr-17 08:53N 59°29' E 023°13'717.2
2018-Apr-17 08:29N 59°32' E 023°24'817.0
2018-Apr-17 08:00N 59°36' E 023°38'917.1
2018-Apr-17 07:30N 59°40' E 023°53'1317.3
2018-Apr-17 06:45N 59°45' E 024°16'417.3
2018-Apr-17 06:31N 59°46' E 024°25'917.2
2018-Apr-17 06:01N 59°48' E 024°41'917.1
2018-Apr-17 05:31N 59°50' E 024°58'3817.2
2018-Apr-17 03:17N 59°59' E 026°12'517.4
2018-Apr-17 02:59N 60°00' E 026°22'817.1
2018-Apr-17 02:31N 60°01' E 026°38'917.4
2018-Apr-17 02:00N 59°60' E 026°56'816.3
2018-Apr-17 01:31N 60°02' E 027°11'917.4
2018-Apr-17 01:01N 60°07' E 027°26'917.5
2018-Apr-17 00:31N 60°11' E 027°41'816.3
2018-Apr-17 00:00N 60°10' E 027°58'816.2
2018-Apr-16 23:30N 60°08' E 028°13'815.8
2018-Apr-16 23:01N 60°04' E 028°27'815.6
2018-Apr-16 22:31N 60°03' E 028°42'815.7
2018-Apr-16 22:00N 60°03' E 028°58'816.2
2018-Apr-16 21:30N 60°02' E 029°14'1115.0
2018-Apr-16 20:45N 60°00' E 029°37'311.0
2018-Apr-16 20:30N 59°59' E 029°42'1 0.2
2018-Apr-16 16:26N 60°00' E 029°43'0 0.0
2018-Apr-16 15:56N 60°00' E 029°43'0 0.0
2018-Apr-16 15:23N 60°00' E 029°43'0 0.0
2018-Apr-16 14:53N 60°00' E 029°43'0 0.0
2018-Apr-16 14:10N 60°00' E 029°43'0 0.0
2018-Apr-16 13:37N 60°00' E 029°43'0 0.0
2018-Apr-16 13:04N 60°00' E 029°43'0 0.0
2018-Apr-16 12:40N 60°00' E 029°43'0 0.0
2018-Apr-16 11:10N 60°00' E 029°43'0 0.0
2018-Apr-16 10:52N 60°00' E 029°43'0 0.0
2018-Apr-16 10:10N 60°00' E 029°43'0 0.0
2018-Apr-16 09:49N 60°00' E 029°43'0 0.0
2018-Apr-16 09:04N 60°00' E 029°43'0 0.0
2018-Apr-16 08:37N 60°00' E 029°43'0 0.0
2018-Apr-16 08:25N 60°00' E 029°43'0 0.0
2018-Apr-16 07:58N 60°00' E 029°43'0 0.0
2018-Apr-16 07:28N 60°00' E 029°43'0 0.0
2018-Apr-16 05:58N 60°00' E 029°43'0 0.0
2018-Apr-16 05:30N 60°00' E 029°43'10 6.8
2018-Apr-16 04:06N 60°02' E 029°24'1 8.4
2018-Apr-16 04:01N 60°02' E 029°22'510.2
2018-Apr-16 03:30N 60°02' E 029°12'510.7
2018-Apr-16 03:01N 60°02' E 029°01'611.3
2018-Apr-16 02:31N 60°02' E 028°50'611.5
2018-Apr-16 02:01N 60°02' E 028°39'611.4
2018-Apr-16 01:30N 60°03' E 028°27'511.1
2018-Apr-16 01:00N 60°06' E 028°18'510.9
2018-Apr-16 00:31N 60°08' E 028°08'510.9
2018-Apr-16 00:00N 60°09' E 027°57'510.8
2018-Apr-15 23:30N 60°11' E 027°47'611.1
2018-Apr-15 23:01N 60°08' E 027°37'611.0
2018-Apr-15 22:30N 60°05' E 027°28'611.2
2018-Apr-15 21:59N 60°02' E 027°18'511.1
2018-Apr-15 21:31N 59°59' E 027°09'510.4
2018-Apr-15 21:01N 59°58' E 026°59'611.4
2018-Apr-15 20:31N 59°59' E 026°47'611.1
2018-Apr-15 20:01N 59°59' E 026°36'611.7
2018-Apr-15 19:31N 59°58' E 026°25'611.7
2018-Apr-15 19:01N 59°56' E 026°14'2712.3
2018-Apr-15 16:48N 59°49' E 025°21'412.2
2018-Apr-15 16:30N 59°49' E 025°14'712.7
2018-Apr-15 15:59N 59°47' E 025°02'612.5
2018-Apr-15 15:31N 59°46' E 024°50'612.4
2018-Apr-15 15:00N 59°45' E 024°38'612.3
2018-Apr-15 14:31N 59°43' E 024°26'712.4
2018-Apr-15 13:59N 59°42' E 024°14'612.5
2018-Apr-15 13:30N 59°40' E 024°02'613.0
2018-Apr-15 13:00N 59°38' E 023°50'713.6
2018-Apr-15 12:30N 59°36' E 023°37'713.7
2018-Apr-15 12:01N 59°33' E 023°25'713.8
2018-Apr-15 11:30N 59°31' E 023°12'713.7
2018-Apr-15 10:58N 59°29' E 022°58'28013.6
2018-Apr-14 14:25N 56°07' E 016°54'614.0
2018-Apr-14 14:01N 56°03' E 016°46'713.9
2018-Apr-14 13:30N 55°60' E 016°35'713.9
2018-Apr-14 13:00N 55°56' E 016°24'713.9
2018-Apr-14 12:30N 55°53' E 016°13'713.9
2018-Apr-14 12:00N 55°50' E 016°02'713.8
2018-Apr-14 11:30N 55°47' E 015°52'713.8
2018-Apr-14 11:00N 55°43' E 015°41'713.8
2018-Apr-14 10:31N 55°40' E 015°30'713.7
2018-Apr-14 10:00N 55°36' E 015°20'713.8
2018-Apr-14 09:30N 55°33' E 015°09'713.8
2018-Apr-14 08:59N 55°30' E 014°58'713.8
2018-Apr-14 08:30N 55°26' E 014°48'713.8
2018-Apr-14 08:00N 55°23' E 014°37'713.8
2018-Apr-14 07:30N 55°17' E 014°30'714.0
2018-Apr-14 07:00N 55°12' E 014°22'713.7
2018-Apr-14 06:30N 55°10' E 014°10'2613.4
2018-Apr-14 04:35N 55°11' E 013°26'313.7
2018-Apr-14 04:24N 55°12' E 013°21'513.7
2018-Apr-14 04:00N 55°12' E 013°12'713.4
2018-Apr-14 03:29N 55°13' E 012°60'713.6
2018-Apr-14 03:00N 55°15' E 012°49'713.5
2018-Apr-14 02:30N 55°18' E 012°38'714.1
2018-Apr-14 02:00N 55°25' E 012°39'714.3
2018-Apr-14 01:31N 55°32' E 012°42'510.7
2018-Apr-14 01:00N 55°37' E 012°42'612.9
2018-Apr-14 00:30N 55°44' E 012°41'714.3
2018-Apr-14 00:01N 55°51' E 012°40'714.1
2018-Apr-13 23:30N 55°58' E 012°40'612.6
2018-Apr-13 23:00N 56°04' E 012°37'612.9
2018-Apr-13 22:31N 56°09' E 012°29'5313.9
2018-Apr-13 18:43N 56°55' E 011°44'314.6
2018-Apr-13 18:30N 56°58' E 011°42'714.6
2018-Apr-13 18:00N 57°05' E 011°38'714.7
2018-Apr-13 17:30N 57°12' E 011°34'714.6
2018-Apr-13 17:00N 57°19' E 011°29'714.5
2018-Apr-13 16:30N 57°26' E 011°24'714.1
2018-Apr-13 16:00N 57°31' E 011°16'714.4
2018-Apr-13 15:30N 57°36' E 011°06'815.4
2018-Apr-13 15:00N 57°41' E 010°55'815.0
2018-Apr-13 14:31N 57°46' E 010°45'612.2
2018-Apr-13 14:00N 57°46' E 010°33'612.6
2018-Apr-13 13:30N 57°45' E 010°22'612.2
2018-Apr-13 13:00N 57°43' E 010°11'612.7
2018-Apr-13 12:30N 57°41' E 009°60'12312.9
2018-Apr-13 02:58N 56°03' E 007°43'715.2
2018-Apr-13 02:31N 55°56' E 007°37'815.0
2018-Apr-13 02:00N 55°50' E 007°28'715.0
2018-Apr-13 01:30N 55°45' E 007°19'814.8
2018-Apr-13 00:59N 55°39' E 007°10'714.7
2018-Apr-13 00:30N 55°34' E 007°02'714.6
2018-Apr-13 00:00N 55°28' E 006°54'714.3
2018-Apr-12 23:30N 55°23' E 006°46'714.1
2018-Apr-12 23:00N 55°17' E 006°38'714.0
2018-Apr-12 22:30N 55°12' E 006°31'  
Track history (hours):
 
Tides and Currents Weather Stations Pressure Air Temp Water Temp Dewpoint Dewpoint Depression Visibility Wind Speed Wind Dir Waves Ship Positions

Vohburg

Last reported at 2018-Apr-22 19:57 UTC. Time now 2018-Apr-22 20:23 UTC.
Position N 51°58' E 002°38'.

Length 140 m; draft 6.4 m.

Type: Ship (hazmat cat A). MMSI: 305773000.

Date/timePositionNaut miles runAvg speedWind from/ knotsBaromVisibWave heightAir tempDewpointWater temp
2018-Apr-22 19:57N 51°58' E 002°38'818.8
2018-Apr-22 19:31N 51°53' E 002°28'1019.3
2018-Apr-22 19:00N 51°47' E 002°16'1019.4
2018-Apr-22 18:31N 51°40' E 002°05'1019.3
2018-Apr-22 18:00N 51°34' E 001°53'918.7
2018-Apr-22 17:30N 51°30' E 001°39'816.7
2018-Apr-22 17:01N 51°27' E 001°27'815.5
2018-Apr-22 16:30N 51°29' E 001°14'815.6
2018-Apr-22 16:00N 51°29' E 001°02'816.1
2018-Apr-22 15:31N 51°28' E 000°49'610.4
2018-Apr-22 14:58N 51°26' E 000°41'0 0.0
2018-Apr-22 14:28N 51°26' E 000°41'0 0.0
2018-Apr-22 13:58N 51°26' E 000°41'0 0.0
2018-Apr-22 13:25N 51°26' E 000°41'0 0.0
2018-Apr-22 12:58N 51°26' E 000°41'0 0.0
2018-Apr-22 12:28N 51°26' E 000°41'0 0.0
2018-Apr-22 11:58N 51°26' E 000°41'0 0.0
2018-Apr-22 11:28N 51°26' E 000°41'0 0.0
2018-Apr-22 10:58N 51°26' E 000°41'0 0.0
2018-Apr-22 10:28N 51°26' E 000°41'0 0.0
2018-Apr-22 09:58N 51°26' E 000°41'0 0.0
2018-Apr-22 09:28N 51°26' E 000°41'0 0.0
2018-Apr-22 08:58N 51°26' E 000°41'0 0.0
2018-Apr-22 08:28N 51°26' E 000°41'0 0.0
2018-Apr-22 07:58N 51°26' E 000°41'0 0.0
2018-Apr-22 07:25N 51°26' E 000°41'0 0.0
2018-Apr-22 06:58N 51°26' E 000°41'0 0.0
2018-Apr-22 06:28N 51°26' E 000°41'0 0.0
2018-Apr-22 05:58N 51°26' E 000°41'0 0.0
2018-Apr-22 05:28N 51°26' E 000°41'0 0.0
2018-Apr-22 04:58N 51°26' E 000°41'0 0.0
2018-Apr-22 04:28N 51°26' E 000°41'0 0.8
2018-Apr-22 04:01N 51°26' E 000°41'510.4
2018-Apr-22 03:31N 51°28' E 000°49'816.1
2018-Apr-22 03:01N 51°29' E 001°02'917.8
2018-Apr-22 02:31N 51°29' E 001°16'918.1
2018-Apr-22 02:01N 51°27' E 001°30'510.1
2018-Apr-22 01:30N 51°30' E 001°37'816.4
2018-Apr-22 01:01N 51°37' E 001°43'816.2
2018-Apr-22 00:30N 51°45' E 001°44'816.8
2018-Apr-22 00:01N 51°53' E 001°44'816.9
2018-Apr-21 23:30N 52°02' E 001°45'917.1
2018-Apr-21 23:00N 52°10' E 001°48'1916.7
2018-Apr-21 21:51N 52°29' E 001°53'616.6
2018-Apr-21 21:30N 52°35' E 001°54'816.2
2018-Apr-21 21:00N 52°43' E 001°54'816.4
2018-Apr-21 20:30N 52°49' E 001°45'815.9
2018-Apr-21 20:00N 52°55' E 001°36'815.5
2018-Apr-21 19:30N 53°01' E 001°28'815.4
2018-Apr-21 19:00N 53°08' E 001°21'815.5
2018-Apr-21 18:30N 53°14' E 001°15'815.7
2018-Apr-21 18:00N 53°21' E 001°09'815.7
2018-Apr-21 17:30N 53°28' E 001°03'815.7
2018-Apr-21 17:00N 53°35' E 000°55'815.8
2018-Apr-21 16:30N 53°41' E 000°47'1315.6
2018-Apr-21 15:38N 53°51' E 000°32'215.6
2018-Apr-21 15:29N 53°53' E 000°29'715.7
2018-Apr-21 15:00N 53°59' E 000°21'815.6
2018-Apr-21 14:30N 54°05' E 000°13'815.5
2018-Apr-21 14:00N 54°11' E 000°04'815.6
2018-Apr-21 13:30N 54°17' W 000°04'815.8
2018-Apr-21 13:01N 54°23' W 000°13'815.9
2018-Apr-21 12:30N 54°29' W 000°22'1215.4
2018-Apr-21 11:44N 54°35' W 000°39'415.2
2018-Apr-21 11:29N 54°37' W 000°45'815.8
2018-Apr-21 11:00N 54°39' W 000°58'5 0.4
2018-Apr-20 21:28N 54°42' W 001°04'35515.4
2018-Apr-19 22:30N 57°17' E 008°26'715.0
2018-Apr-19 22:00N 57°21' E 008°38'815.1
2018-Apr-19 21:30N 57°24' E 008°51'815.0
2018-Apr-19 21:00N 57°28' E 009°04'815.3
2018-Apr-19 20:30N 57°31' E 009°16'815.4
2018-Apr-19 20:00N 57°34' E 009°29'1015.4
2018-Apr-19 19:20N 57°39' E 009°46'515.3
2018-Apr-19 19:00N 57°41' E 009°55'815.2
2018-Apr-19 18:30N 57°44' E 010°08'815.4
2018-Apr-19 18:01N 57°45' E 010°22'815.3
2018-Apr-19 17:31N 57°47' E 010°36'714.2
2018-Apr-19 17:01N 57°46' E 010°49'714.9
2018-Apr-19 16:31N 57°41' E 010°59'714.8
2018-Apr-19 16:01N 57°36' E 011°09'815.4
2018-Apr-19 15:30N 57°31' E 011°20'714.9
2018-Apr-19 15:01N 57°25' E 011°29'815.6
2018-Apr-19 14:30N 57°18' E 011°33'815.8
2018-Apr-19 14:01N 57°10' E 011°38'816.0
2018-Apr-19 13:30N 57°03' E 011°43'915.9
2018-Apr-19 12:56N 56°54' E 011°49'615.1
2018-Apr-19 12:31N 56°48' E 011°53'4415.0
2018-Apr-19 09:36N 56°10' E 012°30'115.3
2018-Apr-19 09:30N 56°08' E 012°32'815.1
2018-Apr-19 09:00N 56°03' E 012°40'815.1
2018-Apr-19 08:31N 55°55' E 012°44'714.6
2018-Apr-19 08:01N 55°49' E 012°48'714.8
2018-Apr-19 07:30N 55°42' E 012°54'611.7
2018-Apr-19 07:00N 55°36' E 012°52'511.0
2018-Apr-19 06:30N 55°32' E 012°46'713.7
2018-Apr-19 06:01N 55°26' E 012°41'714.7
2018-Apr-19 05:30N 55°18' E 012°41'815.1
2018-Apr-19 05:01N 55°16' E 012°53'815.2
2018-Apr-19 04:27N 55°15' E 013°08'3115.3
2018-Apr-19 02:26N 55°14' E 014°02'715.3
2018-Apr-19 01:59N 55°14' E 014°14'714.3
2018-Apr-19 01:30N 55°18' E 014°24'815.1
2018-Apr-19 01:00N 55°23' E 014°33'714.8
2018-Apr-19 00:31N 55°27' E 014°44'815.1
2018-Apr-19 00:01N 55°28' E 014°57'815.2
2018-Apr-18 23:31N 55°28' E 015°10'815.1
2018-Apr-18 23:00N 55°29' E 015°24'714.9
2018-Apr-18 22:30N 55°29' E 015°37'815.0
2018-Apr-18 22:00N 55°29' E 015°50'334 9.0
2018-Apr-17 09:07N 59°27' E 023°05'417.2
2018-Apr-17 08:53N 59°29' E 023°13'717.2
2018-Apr-17 08:29N 59°32' E 023°24'817.0
2018-Apr-17 08:00N 59°36' E 023°38'917.1
2018-Apr-17 07:30N 59°40' E 023°53'1317.3
2018-Apr-17 06:45N 59°45' E 024°16'417.3
2018-Apr-17 06:31N 59°46' E 024°25'917.2
2018-Apr-17 06:01N 59°48' E 024°41'917.1
2018-Apr-17 05:31N 59°50' E 024°58'3817.2
2018-Apr-17 03:17N 59°59' E 026°12'517.4
2018-Apr-17 02:59N 60°00' E 026°22'817.1
2018-Apr-17 02:31N 60°01' E 026°38'917.4
2018-Apr-17 02:00N 59°60' E 026°56'816.3
2018-Apr-17 01:31N 60°02' E 027°11'917.4
2018-Apr-17 01:01N 60°07' E 027°26'917.5
2018-Apr-17 00:31N 60°11' E 027°41'816.3
2018-Apr-17 00:00N 60°10' E 027°58'816.2
2018-Apr-16 23:30N 60°08' E 028°13'815.8
2018-Apr-16 23:01N 60°04' E 028°27'815.6
2018-Apr-16 22:31N 60°03' E 028°42'815.7
2018-Apr-16 22:00N 60°03' E 028°58'816.2
2018-Apr-16 21:30N 60°02' E 029°14'1115.0
2018-Apr-16 20:45N 60°00' E 029°37'311.0
2018-Apr-16 20:30N 59°59' E 029°42'1 0.2
2018-Apr-16 16:26N 60°00' E 029°43'0 0.0
2018-Apr-16 15:56N 60°00' E 029°43'0 0.0
2018-Apr-16 15:23N 60°00' E 029°43'0 0.0
2018-Apr-16 14:53N 60°00' E 029°43'0 0.0
2018-Apr-16 14:10N 60°00' E 029°43'0 0.0
2018-Apr-16 13:37N 60°00' E 029°43'0 0.0
2018-Apr-16 13:04N 60°00' E 029°43'0 0.0
2018-Apr-16 12:40N 60°00' E 029°43'0 0.0
2018-Apr-16 11:10N 60°00' E 029°43'0 0.0
2018-Apr-16 10:52N 60°00' E 029°43'0 0.0
2018-Apr-16 10:10N 60°00' E 029°43'0 0.0
2018-Apr-16 09:49N 60°00' E 029°43'0 0.0
2018-Apr-16 09:04N 60°00' E 029°43'0 0.0
2018-Apr-16 08:37N 60°00' E 029°43'0 0.0
2018-Apr-16 08:25N 60°00' E 029°43'0 0.0
2018-Apr-16 07:58N 60°00' E 029°43'0 0.0
2018-Apr-16 07:28N 60°00' E 029°43'0 0.0
2018-Apr-16 05:58N 60°00' E 029°43'0 0.0
2018-Apr-16 05:30N 60°00' E 029°43'10 6.8
2018-Apr-16 04:06N 60°02' E 029°24'1 8.4
2018-Apr-16 04:01N 60°02' E 029°22'510.2
2018-Apr-16 03:30N 60°02' E 029°12'510.7
2018-Apr-16 03:01N 60°02' E 029°01'611.3
2018-Apr-16 02:31N 60°02' E 028°50'611.5
2018-Apr-16 02:01N 60°02' E 028°39'611.4
2018-Apr-16 01:30N 60°03' E 028°27'511.1
2018-Apr-16 01:00N 60°06' E 028°18'510.9
2018-Apr-16 00:31N 60°08' E 028°08'510.9
2018-Apr-16 00:00N 60°09' E 027°57'510.8
2018-Apr-15 23:30N 60°11' E 027°47'611.1
2018-Apr-15 23:01N 60°08' E 027°37'611.0
2018-Apr-15 22:30N 60°05' E 027°28'611.2
2018-Apr-15 21:59N 60°02' E 027°18'511.1
2018-Apr-15 21:31N 59°59' E 027°09'510.4
2018-Apr-15 21:01N 59°58' E 026°59'611.4
2018-Apr-15 20:31N 59°59' E 026°47'611.1
2018-Apr-15 20:01N 59°59' E 026°36'611.7
2018-Apr-15 19:31N 59°58' E 026°25'611.7
2018-Apr-15 19:01N 59°56' E 026°14'2712.3
2018-Apr-15 16:48N 59°49' E 025°21'412.2
2018-Apr-15 16:30N 59°49' E 025°14'712.7
2018-Apr-15 15:59N 59°47' E 025°02'612.5
2018-Apr-15 15:31N 59°46' E 024°50'612.4
2018-Apr-15 15:00N 59°45' E 024°38'612.3
2018-Apr-15 14:31N 59°43' E 024°26'712.4
2018-Apr-15 13:59N 59°42' E 024°14'612.5
2018-Apr-15 13:30N 59°40' E 024°02'613.0
2018-Apr-15 13:00N 59°38' E 023°50'713.6
2018-Apr-15 12:30N 59°36' E 023°37'713.7
2018-Apr-15 12:01N 59°33' E 023°25'713.8
2018-Apr-15 11:30N 59°31' E 023°12'713.7
2018-Apr-15 10:58N 59°29' E 022°58'28013.6
2018-Apr-14 14:25N 56°07' E 016°54'614.0
2018-Apr-14 14:01N 56°03' E 016°46'713.9
2018-Apr-14 13:30N 55°60' E 016°35'713.9
2018-Apr-14 13:00N 55°56' E 016°24'713.9
2018-Apr-14 12:30N 55°53' E 016°13'713.9
2018-Apr-14 12:00N 55°50' E 016°02'713.8
2018-Apr-14 11:30N 55°47' E 015°52'713.8
2018-Apr-14 11:00N 55°43' E 015°41'713.8
2018-Apr-14 10:31N 55°40' E 015°30'713.7
2018-Apr-14 10:00N 55°36' E 015°20'713.8
2018-Apr-14 09:30N 55°33' E 015°09'713.8
2018-Apr-14 08:59N 55°30' E 014°58'713.8
2018-Apr-14 08:30N 55°26' E 014°48'713.8
2018-Apr-14 08:00N 55°23' E 014°37'713.8
2018-Apr-14 07:30N 55°17' E 014°30'714.0
2018-Apr-14 07:00N 55°12' E 014°22'713.7
2018-Apr-14 06:30N 55°10' E 014°10'2613.4
2018-Apr-14 04:35N 55°11' E 013°26'313.7
2018-Apr-14 04:24N 55°12' E 013°21'513.7
2018-Apr-14 04:00N 55°12' E 013°12'713.4
2018-Apr-14 03:29N 55°13' E 012°60'713.6
2018-Apr-14 03:00N 55°15' E 012°49'713.5
2018-Apr-14 02:30N 55°18' E 012°38'714.1
2018-Apr-14 02:00N 55°25' E 012°39'714.3
2018-Apr-14 01:31N 55°32' E 012°42'510.7
2018-Apr-14 01:00N 55°37' E 012°42'612.9
2018-Apr-14 00:30N 55°44' E 012°41'714.3
2018-Apr-14 00:01N 55°51' E 012°40'714.1
2018-Apr-13 23:30N 55°58' E 012°40'612.6
2018-Apr-13 23:00N 56°04' E 012°37'612.9
2018-Apr-13 22:31N 56°09' E 012°29'5313.9
2018-Apr-13 18:43N 56°55' E 011°44'314.6
2018-Apr-13 18:30N 56°58' E 011°42'714.6
2018-Apr-13 18:00N 57°05' E 011°38'714.7
2018-Apr-13 17:30N 57°12' E 011°34'714.6
2018-Apr-13 17:00N 57°19' E 011°29'714.5
2018-Apr-13 16:30N 57°26' E 011°24'714.1
2018-Apr-13 16:00N 57°31' E 011°16'714.4
2018-Apr-13 15:30N 57°36' E 011°06'815.4
2018-Apr-13 15:00N 57°41' E 010°55'815.0
2018-Apr-13 14:31N 57°46' E 010°45'612.2
2018-Apr-13 14:00N 57°46' E 010°33'612.6
2018-Apr-13 13:30N 57°45' E 010°22'612.2
2018-Apr-13 13:00N 57°43' E 010°11'612.7
2018-Apr-13 12:30N 57°41' E 009°60'12312.9
2018-Apr-13 02:58N 56°03' E 007°43'715.2
2018-Apr-13 02:31N 55°56' E 007°37'815.0
2018-Apr-13 02:00N 55°50' E 007°28'715.0
2018-Apr-13 01:30N 55°45' E 007°19'814.8
2018-Apr-13 00:59N 55°39' E 007°10'714.7
2018-Apr-13 00:30N 55°34' E 007°02'714.6
2018-Apr-13 00:00N 55°28' E 006°54'714.3
2018-Apr-12 23:30N 55°23' E 006°46'714.1
2018-Apr-12 23:00N 55°17' E 006°38'714.0
2018-Apr-12 22:30N 55°12' E 006°31'  

Dump ship's entire track history